createdAt,value
2018-06-25T00:02:09.479Z,85.92
2018-06-25T00:04:37.557Z,85.67
2018-06-25T00:07:05.741Z,86.06
2018-06-25T00:09:33.845Z,86.48
2018-06-25T00:12:02.352Z,85.88
2018-06-25T00:14:30.404Z,85.73
2018-06-25T00:16:58.449Z,85.75
2018-06-25T00:19:26.496Z,85.98
2018-06-25T00:21:54.575Z,85.72
2018-06-25T00:24:22.627Z,85.22
2018-06-25T00:26:50.727Z,85.29
2018-06-25T00:29:18.771Z,85.24
2018-06-25T00:31:46.808Z,85.14
2018-06-25T00:34:14.835Z,85.41
2018-06-25T00:36:42.879Z,85.23
2018-06-25T00:39:12.028Z,85.07
2018-06-25T00:41:40.072Z,85.53
2018-06-25T00:44:08.151Z,86.62
2018-06-25T00:46:36.456Z,87.03
2018-06-25T00:49:04.706Z,87.46
2018-06-25T00:51:32.768Z,86.98
2018-06-25T00:54:00.807Z,87.31
2018-06-25T00:56:28.924Z,87.44
2018-06-25T00:59:08.556Z,86.95
2018-06-25T01:01:36.604Z,86.70
2018-06-25T01:04:04.642Z,87.15
2018-06-25T01:06:32.740Z,87.87
2018-06-25T01:09:00.768Z,87.93
2018-06-25T01:11:28.797Z,87.65
2018-06-25T01:13:56.835Z,87.91
2018-06-25T01:16:24.871Z,87.28
2018-06-25T01:18:52.916Z,87.69
2018-06-25T01:21:20.947Z,87.86
2018-06-25T01:23:49.025Z,87.74
2018-06-25T01:26:17.068Z,88.53
2018-06-25T01:28:45.277Z,88.28
2018-06-25T01:31:13.311Z,88.07
2018-06-25T01:33:41.334Z,87.86
2018-06-25T01:36:09.711Z,88.10
2018-06-25T01:38:37.775Z,88.45
2018-06-25T01:41:05.827Z,88.24
2018-06-25T01:43:33.880Z,88.25
2018-06-25T01:46:01.906Z,88.03
2018-06-25T01:48:29.936Z,88.34
2018-06-25T01:50:57.979Z,87.82
2018-06-25T01:53:26.018Z,87.92
2018-06-25T01:55:54.085Z,87.97
2018-06-25T01:58:22.128Z,88.16
2018-06-25T02:00:50.327Z,87.93
2018-06-25T02:03:18.544Z,88.01
2018-06-25T02:05:46.567Z,88.01
2018-06-25T02:08:14.591Z,87.72
2018-06-25T02:10:42.643Z,87.66
2018-06-25T02:13:10.668Z,87.64
2018-06-25T02:15:38.856Z,88.22
2018-06-25T02:18:06.883Z,88.20
2018-06-25T02:20:34.927Z,88.18
2018-06-25T02:23:03.196Z,88.44
2018-06-25T02:25:31.245Z,88.15
2018-06-25T02:27:59.284Z,87.84
2018-06-25T02:30:27.334Z,87.69
2018-06-25T02:32:55.372Z,88.03
2018-06-25T02:35:23.728Z,87.93
2018-06-25T02:37:51.773Z,88.04
2018-06-25T02:40:19.798Z,87.97
2018-06-25T02:42:47.863Z,87.94
2018-06-25T02:45:15.908Z,87.62
2018-06-25T02:47:43.940Z,87.87
2018-06-25T02:50:12.148Z,87.53
2018-06-25T02:52:40.188Z,87.37
2018-06-25T02:55:08.248Z,87.35
2018-06-25T02:57:36.352Z,87.53
2018-06-25T03:00:04.809Z,87.58
2018-06-25T03:02:32.940Z,87.91
2018-06-25T03:05:00.990Z,87.60
2018-06-25T03:07:29.032Z,88.23
2018-06-25T03:09:57.089Z,88.17
2018-06-25T03:12:25.119Z,88.14
2018-06-25T03:14:53.160Z,88.15
2018-06-25T03:17:21.220Z,88.59
2018-06-25T03:19:49.260Z,88.45
2018-06-25T03:22:17.307Z,88.11
2018-06-25T03:24:45.367Z,88.10
2018-06-25T03:27:13.423Z,88.18
2018-06-25T03:29:41.507Z,88.45
2018-06-25T03:32:09.682Z,87.97
2018-06-25T03:34:37.761Z,88.11
2018-06-25T03:37:05.860Z,88.34
2018-06-25T03:39:34.001Z,88.48
2018-06-25T03:42:02.056Z,88.36
2018-06-25T03:44:30.184Z,88.61
2018-06-25T03:46:58.227Z,88.87
2018-06-25T03:49:26.599Z,88.19
2018-06-25T03:51:54.655Z,88.05
2018-06-25T03:54:22.691Z,88.19
2018-06-25T03:56:50.741Z,88.22
2018-06-25T03:59:18.799Z,87.98
2018-06-25T04:01:46.823Z,87.80
2018-06-25T04:04:14.870Z,88.04
2018-06-25T04:06:42.904Z,87.91
2018-06-25T04:09:11.824Z,88.46
2018-06-25T04:11:40.337Z,88.17
2018-06-25T04:14:08.620Z,87.78
2018-06-25T04:16:37.161Z,88.05
2018-06-25T04:19:06.032Z,88.34
2018-06-25T04:21:35.653Z,87.96
2018-06-25T04:24:03.729Z,87.73
2018-06-25T04:26:32.315Z,87.73
2018-06-25T04:29:00.536Z,88.18
2018-06-25T04:31:29.097Z,87.83
2018-06-25T04:33:57.196Z,87.71
2018-06-25T04:36:25.240Z,87.82
2018-06-25T04:38:53.278Z,87.81
2018-06-25T04:41:21.327Z,87.74
2018-06-25T04:43:49.364Z,87.93
2018-06-25T04:46:17.448Z,87.93
2018-06-25T04:48:45.496Z,87.89
2018-06-25T04:51:13.551Z,87.78
2018-06-25T04:53:42.286Z,87.72
2018-06-25T04:56:10.971Z,87.90
2018-06-25T04:58:39.024Z,87.62
2018-06-25T05:01:07.164Z,87.94
2018-06-25T05:03:35.188Z,87.87
2018-06-25T05:06:03.267Z,87.45
2018-06-25T05:08:31.307Z,87.39
2018-06-25T05:10:59.687Z,87.29
2018-06-25T05:13:27.743Z,87.03
2018-06-25T05:15:55.776Z,86.78
2018-06-25T05:18:23.883Z,85.87
2018-06-25T05:20:51.926Z,85.47
2018-06-25T05:23:19.990Z,86.05
2018-06-25T05:25:48.130Z,85.65
2018-06-25T05:28:16.255Z,85.61
2018-06-25T05:30:44.307Z,84.96
2018-06-25T05:33:12.420Z,85.14
2018-06-25T05:35:40.560Z,85.71
2018-06-25T05:38:08.643Z,85.79
2018-06-25T05:40:36.707Z,85.60
2018-06-25T05:43:04.836Z,85.54
2018-06-25T05:45:33.051Z,86.29
2018-06-25T05:48:01.109Z,86.00
2018-06-25T05:50:29.159Z,85.12
2018-06-25T05:52:57.187Z,86.11
2018-06-25T05:55:25.236Z,85.27
2018-06-25T05:57:53.281Z,84.97
2018-06-25T06:00:21.545Z,83.77
2018-06-25T06:02:50.056Z,83.66
2018-06-25T06:05:18.120Z,84.28
2018-06-25T06:07:46.167Z,83.77
2018-06-25T06:10:14.196Z,84.15
2018-06-25T06:12:42.825Z,84.28
2018-06-25T06:15:10.920Z,83.55
2018-06-25T06:17:39.094Z,84.52
2018-06-25T06:20:07.171Z,83.96
2018-06-25T06:22:35.263Z,84.87
2018-06-25T06:25:03.317Z,84.24
2018-06-25T06:27:31.356Z,84.55
2018-06-25T06:30:00.683Z,84.63
2018-06-25T06:32:28.760Z,84.82
2018-06-25T06:34:56.828Z,84.36
2018-06-25T06:37:24.915Z,83.82
2018-06-25T06:39:52.971Z,84.41
2018-06-25T06:42:20.980Z,84.89
2018-06-25T06:44:49.011Z,84.45
2018-06-25T06:47:17.055Z,85.21
2018-06-25T06:49:45.072Z,84.43
2018-06-25T06:52:13.109Z,84.29
2018-06-25T06:54:41.184Z,83.99
2018-06-25T06:57:09.583Z,84.54
2018-06-25T06:59:37.658Z,84.70
2018-06-25T07:02:06.088Z,84.24
2018-06-25T07:04:34.187Z,83.96
2018-06-25T07:07:02.216Z,84.10
2018-06-25T07:09:30.259Z,83.37
2018-06-25T07:11:58.331Z,83.36
2018-06-25T07:14:26.377Z,82.80
2018-06-25T07:16:54.416Z,83.21
2018-06-25T07:19:22.440Z,83.41
2018-06-25T07:21:50.488Z,83.00
2018-06-25T07:24:18.583Z,82.92
2018-06-25T07:26:46.660Z,81.72
2018-06-25T07:29:14.721Z,81.54
2018-06-25T07:31:42.757Z,80.51
2018-06-25T07:34:10.795Z,82.01
2018-06-25T07:36:38.827Z,82.18
2018-06-25T07:39:08.483Z,80.89
2018-06-25T07:41:36.570Z,80.90
2018-06-25T07:44:04.595Z,80.96
2018-06-25T07:46:32.639Z,82.40
2018-06-25T07:49:00.676Z,81.71
2018-06-25T07:51:28.740Z,80.74
2018-06-25T07:53:56.783Z,79.33
2018-06-25T07:56:24.895Z,78.44
2018-06-25T07:58:52.931Z,77.31
2018-06-25T08:01:20.997Z,76.85
2018-06-25T08:03:48.996Z,77.01
2018-06-25T08:06:17.053Z,74.24
2018-06-25T08:08:45.279Z,73.92
2018-06-25T08:11:13.429Z,72.44
2018-06-25T08:13:41.496Z,70.85
2018-06-25T08:16:09.756Z,72.18
2018-06-25T08:18:37.759Z,69.75
2018-06-25T08:21:05.780Z,62.98
2018-06-25T08:23:33.832Z,66.38
2018-06-25T08:26:01.862Z,65.28
2018-06-25T08:28:29.896Z,62.01
2018-06-25T08:30:57.936Z,65.52
2018-06-25T08:33:25.952Z,66.26
2018-06-25T08:35:53.967Z,66.53
2018-06-25T08:38:22.018Z,66.96
2018-06-25T08:40:50.067Z,67.55
2018-06-25T08:43:18.178Z,65.69
2018-06-25T08:45:46.333Z,65.66
2018-06-25T08:48:14.299Z,65.37
2018-06-25T08:50:42.339Z,65.46
2018-06-25T08:53:10.411Z,64.62
2018-06-25T08:55:38.575Z,64.06
2018-06-25T08:58:06.611Z,63.18
2018-06-25T09:00:34.707Z,62.07
2018-06-25T09:03:02.834Z,62.41
2018-06-25T09:05:30.860Z,61.63
2018-06-25T09:07:58.899Z,59.56
2018-06-25T09:10:26.916Z,58.82
2018-06-25T09:12:55.014Z,57.87
2018-06-25T09:15:23.116Z,58.69
2018-06-25T09:17:51.055Z,58.57
2018-06-25T09:20:19.096Z,60.33
2018-06-25T09:22:47.137Z,62.18
2018-06-25T09:25:15.452Z,63.55
2018-06-25T09:27:48.055Z,64.87
2018-06-25T09:30:16.420Z,64.37
2018-06-25T09:32:44.462Z,66.03
2018-06-25T09:35:12.586Z,65.90
2018-06-25T09:37:40.659Z,65.37
2018-06-25T09:40:09.281Z,62.97
2018-06-25T09:42:37.981Z,63.15
2018-06-25T09:45:07.345Z,61.55
2018-06-25T09:47:35.435Z,62.05
2018-06-25T09:50:03.503Z,58.91
2018-06-25T09:52:31.563Z,57.18
2018-06-25T09:54:59.614Z,56.21
2018-06-25T09:57:27.651Z,55.86
2018-06-25T09:59:55.911Z,53.49
2018-06-25T10:02:23.989Z,52.22
2018-06-25T10:04:52.055Z,53.03
2018-06-25T10:07:20.152Z,54.90
2018-06-25T10:09:48.208Z,54.84
2018-06-25T10:12:16.243Z,54.84
2018-06-25T10:14:44.318Z,55.34
2018-06-25T10:17:12.354Z,56.23
2018-06-25T10:19:40.435Z,55.74
2018-06-25T10:22:08.476Z,55.37
2018-06-25T10:24:36.482Z,55.35
2018-06-25T10:27:04.586Z,55.65
2018-06-25T10:29:32.711Z,54.48
2018-06-25T10:32:00.737Z,55.51
2018-06-25T10:34:28.855Z,56.00
2018-06-25T10:36:56.872Z,54.43
2018-06-25T10:39:24.897Z,53.00
2018-06-25T10:41:52.936Z,53.28
2018-06-25T10:44:20.972Z,54.64
2018-06-25T10:46:49.449Z,53.81
2018-06-25T10:49:17.480Z,53.68
2018-06-25T10:51:45.747Z,51.87
2018-06-25T10:54:13.862Z,51.57
2018-06-25T10:56:42.138Z,49.36
2018-06-25T10:59:10.436Z,50.15
2018-06-25T11:01:38.468Z,50.32
2018-06-25T11:04:06.492Z,50.10
2018-06-25T11:06:34.532Z,49.54
2018-06-25T11:09:02.600Z,49.71
2018-06-25T11:11:30.860Z,50.79
2018-06-25T11:13:58.900Z,51.68
2018-06-25T11:16:27.031Z,51.20
2018-06-25T11:18:55.108Z,50.41
2018-06-25T11:21:23.173Z,53.03
2018-06-25T11:23:51.187Z,53.06
2018-06-25T11:26:19.253Z,55.03
2018-06-25T11:28:47.283Z,57.61
2018-06-25T11:31:15.360Z,58.44
2018-06-25T11:33:43.527Z,60.00
2018-06-25T11:36:11.675Z,60.93
2018-06-25T11:38:39.753Z,61.74
2018-06-25T11:41:07.772Z,61.96
2018-06-25T11:43:35.788Z,61.75
2018-06-25T11:46:03.820Z,61.72
2018-06-25T11:48:31.869Z,61.84
2018-06-25T11:50:59.919Z,62.23
2018-06-25T11:53:27.964Z,62.20
2018-06-25T11:55:55.997Z,61.44
2018-06-25T11:58:24.056Z,60.58
2018-06-25T12:00:52.098Z,59.79
2018-06-25T12:03:20.195Z,58.88
2018-06-25T12:05:48.270Z,55.89
2018-06-25T12:08:16.318Z,55.48
2018-06-25T12:10:44.440Z,54.33
2018-06-25T12:13:12.432Z,54.59
2018-06-25T12:15:40.460Z,52.68
2018-06-25T12:18:08.541Z,53.90
2018-06-25T12:20:36.604Z,53.07
2018-06-25T12:23:04.925Z,54.91
2018-06-25T12:25:32.964Z,55.91
2018-06-25T12:28:00.987Z,56.06
2018-06-25T12:30:29.048Z,54.39
2018-06-25T12:32:57.067Z,55.13
2018-06-25T12:35:25.188Z,53.97
2018-06-25T12:37:53.291Z,52.88
2018-06-25T12:40:21.288Z,51.98
2018-06-25T12:42:49.319Z,51.64
2018-06-25T12:45:17.371Z,51.47
2018-06-25T12:47:45.499Z,50.54
2018-06-25T12:50:13.825Z,49.86
2018-06-25T12:52:41.955Z,51.05
2018-06-25T12:55:10.109Z,51.60
2018-06-25T12:57:38.285Z,51.33
2018-06-25T13:00:06.352Z,50.56
2018-06-25T13:02:34.468Z,49.88
2018-06-25T13:05:03.454Z,49.48
2018-06-25T13:07:31.536Z,49.80
2018-06-25T13:09:59.744Z,48.93
2018-06-25T13:12:27.828Z,50.55
2018-06-25T13:14:55.918Z,49.44
2018-06-25T13:17:23.947Z,48.71
2018-06-25T13:19:52.048Z,47.82
2018-06-25T13:22:20.077Z,48.35
2018-06-25T13:24:48.120Z,49.13
2018-06-25T13:27:16.159Z,49.12
2018-06-25T13:29:44.233Z,49.20
2018-06-25T13:32:12.284Z,48.49
2018-06-25T13:34:40.338Z,48.98
2018-06-25T13:37:08.384Z,48.64
2018-06-25T13:39:36.604Z,47.75
2018-06-25T13:42:05.033Z,46.83
2018-06-25T13:44:33.123Z,45.73
2018-06-25T13:47:01.235Z,47.12
2018-06-25T13:49:29.424Z,44.68
2018-06-25T13:51:57.553Z,47.26
2018-06-25T13:54:25.606Z,47.01
2018-06-25T13:56:53.631Z,48.00
2018-06-25T13:59:21.683Z,48.36
2018-06-25T14:01:49.700Z,47.99
2018-06-25T14:04:17.786Z,48.90
2018-06-25T14:06:45.880Z,49.13
2018-06-25T14:09:14.164Z,49.47
2018-06-25T14:11:42.231Z,49.28
2018-06-25T14:14:10.323Z,47.01
2018-06-25T14:16:39.098Z,46.36
2018-06-25T14:19:06.987Z,47.83
2018-06-25T14:21:35.099Z,45.72
2018-06-25T14:24:08.500Z,46.63
2018-06-25T14:26:43.368Z,47.03
2018-06-25T14:29:16.937Z,47.50
2018-06-25T14:31:45.331Z,46.50
2018-06-25T14:34:18.809Z,45.37
2018-06-25T14:36:47.176Z,47.09
2018-06-25T14:39:15.224Z,47.78
2018-06-25T14:41:43.335Z,47.17
2018-06-25T14:44:11.548Z,44.86
2018-06-25T14:46:39.846Z,45.46
2018-06-25T14:49:07.992Z,45.66
2018-06-25T14:51:36.231Z,46.28
2018-06-25T14:54:04.780Z,46.35
2018-06-25T14:56:33.650Z,45.30
2018-06-25T14:59:02.406Z,45.96
2018-06-25T15:01:30.508Z,46.35
2018-06-25T15:03:58.576Z,46.41
2018-06-25T15:06:26.612Z,46.86
2018-06-25T15:08:54.653Z,47.07
2018-06-25T15:11:22.790Z,46.28
2018-06-25T15:13:50.922Z,46.48
2018-06-25T15:16:18.966Z,45.59
2018-06-25T15:18:46.994Z,44.65
2018-06-25T15:21:15.033Z,44.35
2018-06-25T15:23:43.140Z,44.75
2018-06-25T15:26:11.232Z,43.14
2018-06-25T15:28:39.457Z,44.41
2018-06-25T15:31:07.724Z,45.58
2018-06-25T15:33:36.638Z,45.83
2018-06-25T15:36:05.369Z,46.13
2018-06-25T15:38:35.418Z,46.78
2018-06-25T15:41:03.460Z,47.18
2018-06-25T15:43:31.515Z,47.83
2018-06-25T15:45:59.576Z,46.55
2018-06-25T15:48:27.752Z,46.14
2018-06-25T15:50:55.812Z,45.55
2018-06-25T15:53:23.864Z,46.21
2018-06-25T15:55:52.192Z,46.10
2018-06-25T15:58:20.302Z,46.82
2018-06-25T16:00:48.327Z,45.08
2018-06-25T16:03:16.399Z,44.14
2018-06-25T16:05:45.423Z,43.91
2018-06-25T16:08:13.560Z,45.19
2018-06-25T16:10:42.202Z,43.27
2018-06-25T16:13:10.307Z,45.01
2018-06-25T16:15:38.336Z,44.04
2018-06-25T16:18:06.395Z,45.04
2018-06-25T16:20:34.473Z,45.39
2018-06-25T16:23:02.508Z,45.53
2018-06-25T16:25:30.548Z,44.38
2018-06-25T16:27:58.571Z,45.65
2018-06-25T16:30:27.756Z,45.70
2018-06-25T16:32:55.812Z,46.06
2018-06-25T16:35:23.846Z,45.98
2018-06-25T16:37:51.969Z,45.57
2018-06-25T16:40:20.030Z,46.00
2018-06-25T16:42:48.119Z,46.81
2018-06-25T16:45:16.210Z,47.15
2018-06-25T16:47:45.507Z,47.18
2018-06-25T16:50:13.724Z,46.83
2018-06-25T16:52:41.971Z,46.09
2018-06-25T16:55:10.351Z,46.09
2018-06-25T16:57:39.563Z,45.91
2018-06-25T17:00:07.825Z,45.16
2018-06-25T17:02:36.904Z,45.89
2018-06-25T17:05:05.814Z,45.76
2018-06-25T17:07:34.970Z,46.23
2018-06-25T17:10:03.571Z,46.23
2018-06-25T17:12:31.921Z,46.77
2018-06-25T17:15:00.062Z,47.34
2018-06-25T17:17:28.114Z,48.38
2018-06-25T17:19:56.153Z,48.36
2018-06-25T17:22:24.230Z,48.20
2018-06-25T17:24:52.585Z,48.46
2018-06-25T17:27:21.411Z,49.07
2018-06-25T17:29:49.476Z,49.13
2018-06-25T17:32:17.684Z,49.54
2018-06-25T17:34:45.768Z,50.02
2018-06-25T17:37:13.845Z,49.17
2018-06-25T17:39:41.868Z,49.98
2018-06-25T17:42:10.033Z,50.11
2018-06-25T17:44:38.191Z,50.00
2018-06-25T17:47:06.241Z,50.51
2018-06-25T17:49:34.535Z,50.78
2018-06-25T17:52:03.125Z,51.66
2018-06-25T17:54:31.399Z,51.37
2018-06-25T17:56:59.467Z,51.87
2018-06-25T17:59:27.647Z,51.86
2018-06-25T18:01:55.856Z,52.50
2018-06-25T18:04:24.284Z,52.53
2018-06-25T18:06:52.488Z,52.56
2018-06-25T18:09:20.549Z,53.11
2018-06-25T18:11:49.332Z,52.80
2018-06-25T18:14:17.436Z,52.50
2018-06-25T18:16:46.239Z,52.93
2018-06-25T18:19:14.361Z,53.39
2018-06-25T18:21:42.589Z,54.33
2018-06-25T18:24:10.787Z,53.72
2018-06-25T18:26:38.935Z,54.17
2018-06-25T18:29:07.210Z,53.78
2018-06-25T18:31:35.340Z,54.11
2018-06-25T18:34:04.058Z,54.53
2018-06-25T18:36:32.260Z,54.32
2018-06-25T18:39:00.578Z,54.52
2018-06-25T18:41:28.916Z,54.17
2018-06-25T18:43:57.036Z,54.57
2018-06-25T18:46:25.114Z,54.53
2018-06-25T18:48:53.152Z,54.65
2018-06-25T18:51:21.200Z,55.34
2018-06-25T18:53:49.523Z,55.28
2018-06-25T18:56:17.834Z,55.87
2018-06-25T18:58:46.025Z,56.16
2018-06-25T19:01:14.496Z,56.98
2018-06-25T19:03:43.001Z,57.27
2018-06-25T19:06:11.283Z,57.35
2018-06-25T19:08:39.498Z,57.96
2018-06-25T19:11:07.785Z,58.38
2018-06-25T19:13:36.373Z,58.17
2018-06-25T19:16:04.954Z,58.47
2018-06-25T19:18:33.528Z,59.16
2018-06-25T19:21:01.631Z,59.85
2018-06-25T19:23:29.729Z,60.01
2018-06-25T19:25:57.952Z,60.39
2018-06-25T19:28:26.124Z,60.06
2018-06-25T19:30:54.239Z,61.53
2018-06-25T19:33:22.426Z,61.57
2018-06-25T19:35:54.957Z,62.51
2018-06-25T19:38:23.493Z,62.75
2018-06-25T19:40:51.577Z,63.71
2018-06-25T19:43:19.965Z,63.41
2018-06-25T19:45:48.365Z,63.20
2018-06-25T19:48:20.510Z,63.33
2018-06-25T19:50:48.580Z,64.31
2018-06-25T19:53:16.639Z,64.76
2018-06-25T19:55:44.800Z,64.71
2018-06-25T19:58:13.111Z,65.05
2018-06-25T20:00:41.588Z,64.83
2018-06-25T20:03:10.016Z,64.83
2018-06-25T20:05:39.538Z,65.89
2018-06-25T20:08:07.740Z,65.77
2018-06-25T20:10:36.490Z,66.21
2018-06-25T20:13:04.936Z,66.66
2018-06-25T20:15:33.083Z,67.56
2018-06-25T20:18:01.545Z,67.76
2018-06-25T20:20:29.846Z,67.92
2018-06-25T20:22:58.256Z,67.92
2018-06-25T20:25:27.358Z,68.92
2018-06-25T20:27:55.424Z,67.96
2018-06-25T20:30:23.601Z,68.06
2018-06-25T20:32:51.639Z,67.92
2018-06-25T20:35:19.872Z,68.28
2018-06-25T20:37:48.019Z,68.54
2018-06-25T20:43:01.235Z,69.41
2018-06-25T20:45:29.319Z,69.88
2018-06-25T20:47:57.403Z,70.36
2018-06-25T20:50:25.676Z,70.50
2018-06-25T20:52:53.851Z,71.43
2018-06-25T20:55:22.000Z,70.89
2018-06-25T20:57:50.060Z,71.13
2018-06-25T21:00:18.134Z,71.54
2018-06-25T21:02:46.457Z,72.57
2018-06-25T21:05:14.496Z,72.06
2018-06-25T21:07:42.552Z,71.99
2018-06-25T21:10:10.678Z,72.28
2018-06-25T21:12:38.704Z,72.50
2018-06-25T21:15:06.871Z,73.11
2018-06-25T21:17:34.916Z,72.94
2018-06-25T21:20:03.277Z,73.56
2018-06-25T21:22:31.362Z,73.45
2018-06-25T21:24:59.563Z,73.68
2018-06-25T21:27:27.665Z,73.01
2018-06-25T21:29:55.727Z,73.62
2018-06-25T21:32:23.993Z,73.42
2018-06-25T21:34:52.132Z,73.60
2018-06-25T21:37:20.172Z,73.65
2018-06-25T21:39:48.394Z,74.62
2018-06-25T21:42:16.464Z,74.82
2018-06-25T21:44:44.504Z,74.94
2018-06-25T21:47:13.207Z,75.12
2018-06-25T21:49:41.399Z,74.92
2018-06-25T21:52:09.486Z,75.93
2018-06-25T21:54:37.688Z,76.04
2018-06-25T21:57:05.755Z,76.61
2018-06-25T21:59:33.855Z,76.17
2018-06-25T22:02:01.968Z,76.33
2018-06-25T22:04:30.037Z,76.66
2018-06-25T22:06:58.084Z,77.01
2018-06-25T22:09:26.169Z,77.04
2018-06-25T22:11:54.225Z,77.31
2018-06-25T22:14:22.295Z,77.89
2018-06-25T22:16:50.423Z,78.33
2018-06-25T22:19:18.582Z,78.71
2018-06-25T22:21:46.634Z,78.80
2018-06-25T22:24:14.843Z,78.83
2018-06-25T22:26:42.921Z,78.89
2018-06-25T22:29:11.013Z,78.76
2018-06-25T22:31:39.305Z,78.55
2018-06-25T22:34:07.403Z,79.33
2018-06-25T22:36:35.612Z,79.49
2018-06-25T22:39:08.569Z,78.74
2018-06-25T22:41:36.879Z,78.42
2018-06-25T22:44:10.061Z,79.39
2018-06-25T22:46:39.879Z,78.69
2018-06-25T22:49:08.572Z,79.43
2018-06-25T22:51:37.242Z,79.54
2018-06-25T22:54:07.015Z,79.57
2018-06-25T22:56:36.957Z,79.59
2018-06-25T22:59:05.418Z,79.56
2018-06-25T23:01:33.484Z,79.45
2018-06-25T23:04:01.700Z,79.44
2018-06-25T23:06:29.735Z,79.46
2018-06-25T23:08:57.775Z,79.79
2018-06-25T23:11:25.856Z,79.56
2018-06-25T23:13:53.888Z,79.37
2018-06-25T23:16:21.942Z,79.29
2018-06-25T23:18:49.989Z,79.72
2018-06-25T23:21:18.042Z,79.43
2018-06-25T23:23:46.072Z,79.74
2018-06-25T23:26:14.121Z,79.83
2018-06-25T23:28:42.318Z,79.96
2018-06-25T23:31:10.367Z,79.57
2018-06-25T23:33:38.435Z,79.63
2018-06-25T23:36:06.599Z,79.47
2018-06-25T23:38:34.695Z,80.35
2018-06-25T23:41:03.328Z,79.62
2018-06-25T23:43:31.386Z,79.55
2018-06-25T23:45:59.571Z,80.18
2018-06-25T23:48:27.964Z,79.03
2018-06-25T23:50:55.988Z,79.73
2018-06-25T23:53:24.075Z,79.10
2018-06-25T23:55:52.638Z,80.03
2018-06-25T23:58:20.813Z,79.61
